Time;durP1;ratioP1;P1;durP2;ratioP2;P2;SDS_P1;SDS_P2;PMS_P1;PMS_P2;Temp;Humidity;BMP_temperature;BMP_pressure;BME280_temperature;BME280_humidity;BME280_pressure;Samples;Min_cycle;Max_cycle;Signal;HPM_P1;HPM_P2
2023/07/03 00:00:45;;;;;;;8.15;3.53;;;17.50;99.90;;;;;;5013970;28;20045;-74
2023/07/03 00:03:14;;;;;;;9.43;3.30;;;17.50;99.90;;;;;;5013655;28;20046;-73
2023/07/03 00:05:43;;;;;;;11.38;3.45;;;17.60;99.90;;;;;;5006749;28;20505;-74
2023/07/03 00:08:10;;;;;;;6.82;3.00;;;17.50;99.90;;;;;;5005178;28;20040;-73
2023/07/03 00:10:36;;;;;;;9.48;3.10;;;17.50;99.90;;;;;;5011284;28;20053;-74
2023/07/03 00:13:02;;;;;;;7.93;2.83;;;17.50;99.90;;;;;;5015642;28;20042;-74
2023/07/03 00:15:27;;;;;;;11.85;3.05;;;17.50;99.90;;;;;;5018461;28;21327;-74
2023/07/03 00:17:53;;;;;;;6.72;2.70;;;17.50;99.90;;;;;;5012239;28;20397;-75
2023/07/03 00:20:18;;;;;;;9.38;3.20;;;17.60;99.90;;;;;;5015162;28;20042;-74
2023/07/03 00:22:46;;;;;;;11.20;3.03;;;17.50;99.90;;;;;;5006524;28;20136;-74
2023/07/03 00:25:12;;;;;;;8.93;3.00;;;17.50;99.90;;;;;;5018012;28;20052;-74
2023/07/03 00:27:38;;;;;;;9.48;3.05;;;17.50;99.90;;;;;;5018814;28;20042;-74
2023/07/03 00:30:05;;;;;;;10.00;3.20;;;17.50;99.90;;;;;;5018127;28;21664;-75
2023/07/03 00:32:31;;;;;;;8.63;2.50;;;17.40;99.90;;;;;;5008176;28;20085;-75
2023/07/03 00:34:57;;;;;;;11.85;2.90;;;17.40;99.90;;;;;;5013358;28;20041;-75
2023/07/03 00:37:23;;;;;;;7.97;3.10;;;17.40;99.90;;;;;;5020810;28;20366;-75
2023/07/03 00:39:48;;;;;;;8.35;2.90;;;17.40;99.90;;;;;;4996772;28;20536;-74
2023/07/03 00:42:14;;;;;;;7.25;2.85;;;17.40;99.90;;;;;;4999844;28;20375;-75
2023/07/03 00:44:39;;;;;;;10.82;3.30;;;17.40;99.90;;;;;;5011144;28;20053;-75
2023/07/03 00:47:08;;;;;;;9.25;2.60;;;17.50;99.90;;;;;;5025831;28;20045;-75
2023/07/03 00:49:33;;;;;;;7.10;2.88;;;17.40;99.90;;;;;;5020258;28;20046;-75
2023/07/03 00:52:00;;;;;;;11.00;3.40;;;17.40;99.90;;;;;;5019199;28;20419;-75
2023/07/03 00:54:26;;;;;;;7.00;3.20;;;17.30;99.90;;;;;;5000261;28;20510;-74
2023/07/03 00:56:52;;;;;;;10.82;3.53;;;17.10;99.90;;;;;;5013336;28;20045;-75
2023/07/03 00:59:18;;;;;;;8.20;3.03;;;17.10;99.90;;;;;;5011267;28;20175;-74
2023/07/03 01:02:03;;;;;;;6.50;2.80;;;17.10;99.90;;;;;;5005030;28;20047;-74
2023/07/03 01:04:44;;;;;;;10.73;3.10;;;17.10;99.90;;;;;;4994039;28;20054;-75
2023/07/03 01:07:14;;;;;;;6.03;2.60;;;17.10;99.90;;;;;;4992643;28;20394;-74
2023/07/03 01:10:03;;;;;;;9.50;2.67;;;17.00;99.90;;;;;;4992380;28;20046;-75
2023/07/03 01:12:32;;;;;;;7.50;2.40;;;17.10;99.90;;;;;;5008800;28;20497;-74
2023/07/03 01:15:03;;;;;;;10.02;3.40;;;17.20;99.90;;;;;;5005446;28;20050;-75
2023/07/03 01:17:32;;;;;;;6.57;2.67;;;17.20;99.90;;;;;;5012845;28;20050;-75
2023/07/03 01:20:04;;;;;;;11.50;3.63;;;17.10;99.90;;;;;;5012055;28;20057;-75
2023/07/03 01:22:32;;;;;;;9.23;3.42;;;16.90;99.90;;;;;;5004594;28;20045;-75
2023/07/03 01:25:05;;;;;;;10.02;3.22;;;17.00;99.90;;;;;;5009636;28;20484;-75
2023/07/03 01:27:37;;;;;;;8.10;2.45;;;16.90;99.90;;;;;;5006923;28;20049;-74
2023/07/03 01:30:07;;;;;;;7.22;2.80;;;16.90;99.90;;;;;;5012840;28;20812;-74
2023/07/03 01:32:35;;;;;;;9.50;3.42;;;16.80;99.90;;;;;;5006203;28;20046;-75
2023/07/03 01:35:03;;;;;;;8.00;2.97;;;16.80;99.90;;;;;;5011006;28;20129;-75
2023/07/03 01:37:32;;;;;;;11.25;2.90;;;16.70;99.90;;;;;;5007429;28;20180;-75
2023/07/03 01:39:59;;;;;;;8.10;2.65;;;16.70;99.90;;;;;;5014316;28;20086;-75
2023/07/03 01:42:28;;;;;;;7.40;2.60;;;16.80;99.90;;;;;;5004741;28;20050;-74
2023/07/03 01:44:54;;;;;;;7.78;2.63;;;16.70;99.90;;;;;;5018106;28;20600;-75
2023/07/03 01:47:20;;;;;;;7.13;3.03;;;;;;;;;;5012729;28;20079;-75
2023/07/03 01:49:47;;;;;;;10.00;2.90;;;16.80;99.90;;;;;;5011399;28;20124;-75
2023/07/03 01:52:15;;;;;;;8.00;2.67;;;;;;;;;;5004581;28;20072;-74
2023/07/03 01:54:49;;;;;;;9.70;3.33;;;16.70;99.90;;;;;;5009078;28;20049;-74
2023/07/03 01:57:22;;;;;;;12.82;3.15;;;16.70;99.90;;;;;;5012370;28;20041;-74
2023/07/03 01:59:51;;;;;;;7.70;2.75;;;16.70;99.90;;;;;;5012660;28;20057;-75
2023/07/03 02:02:23;;;;;;;6.65;2.70;;;16.60;99.90;;;;;;5006667;28;20100;-74
2023/07/03 02:04:57;;;;;;;8.27;2.90;;;16.70;99.90;;;;;;5011192;28;20046;-74
2023/07/03 02:07:25;;;;;;;7.90;3.05;;;16.60;99.90;;;;;;5007724;28;20037;-74
2023/07/03 02:09:51;;;;;;;9.93;3.58;;;16.70;99.90;;;;;;5011422;28;20124;-75
2023/07/03 02:12:18;;;;;;;9.10;2.58;;;16.60;99.90;;;;;;5007786;28;20171;-74
2023/07/03 02:14:44;;;;;;;9.40;3.53;;;;;;;;;;5014863;28;20041;-76
2023/07/03 02:17:09;;;;;;;6.07;2.97;;;16.50;99.90;;;;;;5009450;28;20060;-74
2023/07/03 02:19:35;;;;;;;11.43;3.92;;;16.50;99.90;;;;;;5015968;28;20030;-74
2023/07/03 02:22:03;;;;;;;11.18;2.90;;;16.50;99.90;;;;;;5011002;28;20141;-75
2023/07/03 02:24:28;;;;;;;7.68;2.53;;;16.50;99.90;;;;;;5011124;28;20448;-74
2023/07/03 02:26:54;;;;;;;13.25;3.70;;;16.50;99.90;;;;;;5015063;28;20038;-74
2023/07/03 02:29:20;;;;;;;11.45;3.28;;;16.60;99.90;;;;;;5004861;28;20056;-75
2023/07/03 02:31:46;;;;;;;7.88;2.83;;;16.60;99.90;;;;;;5014388;28;20049;-74
2023/07/03 02:34:12;;;;;;;11.10;3.15;;;16.50;99.90;;;;;;5022188;28;20505;-74
2023/07/03 02:36:39;;;;;;;10.63;3.08;;;16.50;99.90;;;;;;4998849;28;20057;-75
2023/07/03 02:39:05;;;;;;;8.95;2.75;;;16.40;99.90;;;;;;5012011;28;20397;-74
2023/07/03 02:41:32;;;;;;;10.68;3.10;;;16.40;99.90;;;;;;5017903;28;20485;-75
2023/07/03 02:43:58;;;;;;;9.10;3.53;;;16.50;99.90;;;;;;4999736;28;20038;-75
2023/07/03 02:46:23;;;;;;;10.20;3.30;;;16.40;99.90;;;;;;5016321;28;20397;-74
2023/07/03 02:48:49;;;;;;;14.95;4.00;;;16.40;99.90;;;;;;5013757;28;20124;-74
2023/07/03 02:51:15;;;;;;;11.38;3.40;;;16.40;99.90;;;;;;5003620;28;20077;-75
2023/07/03 02:53:42;;;;;;;7.07;2.90;;;16.30;99.90;;;;;;5012807;28;20045;-75
2023/07/03 02:56:08;;;;;;;16.10;3.30;;;16.30;99.90;;;;;;5008193;28;20041;-74
2023/07/03 02:58:35;;;;;;;7.20;3.15;;;16.50;99.90;;;;;;5004967;28;20509;-75
2023/07/03 03:01:01;;;;;;;10.38;2.88;;;16.50;99.90;;;;;;5008725;28;20050;-75
2023/07/03 03:03:28;;;;;;;8.13;3.53;;;16.40;99.90;;;;;;5007407;28;20050;-75
2023/07/03 03:05:55;;;;;;;8.10;3.40;;;16.40;99.90;;;;;;5010360;28;20509;-75
2023/07/03 03:08:21;;;;;;;9.63;3.22;;;16.40;99.90;;;;;;5005910;28;20038;-75
2023/07/03 03:10:48;;;;;;;10.70;3.92;;;16.30;99.90;;;;;;5006936;28;20049;-74
2023/07/03 03:13:13;;;;;;;6.13;2.70;;;16.30;99.90;;;;;;5004390;28;20034;-74
2023/07/03 03:15:43;;;;;;;9.40;3.47;;;16.20;99.90;;;;;;5008759;28;20773;-75
2023/07/03 03:18:09;;;;;;;10.30;2.65;;;16.20;99.90;;;;;;5010782;28;20110;-75
2023/07/03 03:20:35;;;;;;;11.45;2.63;;;16.10;99.90;;;;;;5007307;28;20057;-75
2023/07/03 03:23:00;;;;;;;9.95;2.88;;;16.10;99.90;;;;;;5013153;28;20195;-76
2023/07/03 03:25:26;;;;;;;5.80;2.97;;;16.20;99.90;;;;;;5009023;28;20050;-74
2023/07/03 03:27:51;;;;;;;6.88;2.78;;;16.20;99.90;;;;;;5012166;28;20603;-74
2023/07/03 03:30:17;;;;;;;9.63;3.17;;;16.20;99.90;;;;;;5005238;28;20038;-74
2023/07/03 03:32:43;;;;;;;10.02;2.92;;;16.20;99.90;;;;;;5015769;28;20041;-74
2023/07/03 03:35:09;;;;;;;8.15;3.05;;;16.20;99.90;;;;;;5009718;28;20042;-75
2023/07/03 03:37:35;;;;;;;9.80;2.67;;;16.20;99.90;;;;;;5018146;28;20038;-75
2023/07/03 03:40:01;;;;;;;10.23;3.33;;;16.20;99.90;;;;;;5024996;28;20468;-74
2023/07/03 03:42:26;;;;;;;9.43;3.03;;;16.30;99.90;;;;;;5016351;28;20107;-74
2023/07/03 03:44:52;;;;;;;9.63;2.85;;;16.20;99.90;;;;;;5010805;28;20044;-75
2023/07/03 03:47:19;;;;;;;12.88;2.97;;;16.20;99.90;;;;;;5004585;28;20102;-74
2023/07/03 03:49:45;;;;;;;7.53;2.67;;;16.30;99.90;;;;;;5010026;28;20052;-74
2023/07/03 03:52:11;;;;;;;8.90;2.70;;;16.20;99.90;;;;;;5002468;28;20049;-75
2023/07/03 03:54:36;;;;;;;9.45;2.70;;;16.30;99.90;;;;;;4999023;28;20398;-73
2023/07/03 03:57:03;;;;;;;11.45;3.70;;;16.40;99.90;;;;;;5018620;28;20116;-74
2023/07/03 03:59:28;;;;;;;11.77;3.58;;;16.30;99.90;;;;;;5011751;28;20053;-75
2023/07/03 04:01:54;;;;;;;9.48;3.10;;;16.30;99.90;;;;;;5013515;28;20103;-74
2023/07/03 04:04:20;;;;;;;8.88;3.30;;;16.40;99.90;;;;;;5006383;28;20410;-74
2023/07/03 04:06:45;;;;;;;6.78;2.83;;;16.40;99.90;;;;;;5013129;28;20045;-74
2023/07/03 04:09:11;;;;;;;7.15;2.40;;;16.50;99.90;;;;;;5011701;28;20037;-74
2023/07/03 04:11:37;;;;;;;9.60;2.97;;;16.50;99.90;;;;;;5018416;28;20383;-74
2023/07/03 04:14:03;;;;;;;7.28;2.83;;;16.60;99.90;;;;;;5021848;28;20046;-74
2023/07/03 04:16:30;;;;;;;9.27;2.70;;;16.60;99.90;;;;;;5000406;28;20140;-74
2023/07/03 04:18:56;;;;;;;16.52;3.55;;;16.50;99.90;;;;;;5019171;28;20056;-74
2023/07/03 04:21:23;;;;;;;5.82;2.47;;;16.60;99.90;;;;;;5002941;28;20049;-74
2023/07/03 04:23:48;;;;;;;11.02;3.13;;;16.60;99.90;;;;;;5014519;28;20485;-74
2023/07/03 04:26:14;;;;;;;4.05;2.13;;;16.60;99.90;;;;;;5017371;28;20064;-73
2023/07/03 04:28:41;;;;;;;9.48;2.97;;;16.50;99.90;;;;;;5010036;28;20046;-73
2023/07/03 04:31:06;;;;;;;7.47;2.28;;;16.40;99.90;;;;;;5009254;28;20053;-73
2023/07/03 04:33:32;;;;;;;3.70;2.15;;;16.40;99.90;;;;;;5003664;28;20498;-74
2023/07/03 04:35:58;;;;;;;7.47;2.33;;;16.30;99.90;;;;;;5015318;28;20124;-73
2023/07/03 04:38:23;;;;;;;8.80;2.60;;;16.40;99.90;;;;;;5009524;28;20060;-74
2023/07/03 04:40:53;;;;;;;7.57;2.45;;;16.40;99.90;;;;;;5011229;28;20042;-74
2023/07/03 04:43:20;;;;;;;10.00;2.63;;;16.40;99.90;;;;;;5002565;28;20045;-74
2023/07/03 04:45:52;;;;;;;8.07;2.50;;;16.50;99.90;;;;;;5010432;28;20061;-74
2023/07/03 04:48:19;;;;;;;5.72;2.25;;;16.50;99.90;;;;;;5006759;28;20041;-74
2023/07/03 04:50:47;;;;;;;8.00;2.47;;;16.50;99.90;;;;;;5010955;28;20507;-74
2023/07/03 04:53:13;;;;;;;7.63;2.60;;;16.60;99.90;;;;;;5015774;28;20119;-73
2023/07/03 04:55:39;;;;;;;10.10;2.90;;;16.50;99.90;;;;;;5006723;28;20469;-73
2023/07/03 04:58:05;;;;;;;8.23;2.72;;;16.50;99.90;;;;;;4997168;28;20069;-74
2023/07/03 05:00:31;;;;;;;9.82;3.35;;;16.50;99.90;;;;;;5011472;28;20355;-74
2023/07/03 05:02:59;;;;;;;7.38;2.97;;;16.50;99.90;;;;;;5004491;28;20501;-74
2023/07/03 05:05:25;;;;;;;7.53;2.40;;;16.60;99.90;;;;;;5009535;28;20556;-74
2023/07/03 05:07:51;;;;;;;12.35;3.03;;;16.70;99.90;;;;;;5017168;28;20046;-74
2023/07/03 05:10:17;;;;;;;12.40;3.38;;;16.80;99.90;;;;;;5015022;28;20184;-74
2023/07/03 05:12:44;;;;;;;9.85;3.15;;;16.80;99.90;;;;;;5010065;28;20128;-74
2023/07/03 05:15:12;;;;;;;6.13;3.00;;;16.90;99.90;;;;;;5012976;28;20393;-74
2023/07/03 05:17:39;;;;;;;8.38;3.10;;;16.90;99.90;;;;;;5006078;28;20046;-73
2023/07/03 05:20:11;;;;;;;8.48;3.38;;;16.90;99.90;;;;;;5013834;28;20499;-74
2023/07/03 05:22:38;;;;;;;7.03;2.60;;;16.80;99.90;;;;;;5008285;28;20057;-74
2023/07/03 05:25:05;;;;;;;9.95;3.20;;;16.70;99.90;;;;;;5006431;28;20469;-74
2023/07/03 05:27:31;;;;;;;10.82;3.40;;;16.60;99.90;;;;;;5020057;28;20045;-74
2023/07/03 05:29:57;;;;;;;9.40;3.15;;;16.50;99.90;;;;;;5008843;28;20042;-74
2023/07/03 05:32:24;;;;;;;11.20;2.90;;;16.40;99.90;;;;;;5003627;28;20064;-73
2023/07/03 05:34:49;;;;;;;7.18;2.67;;;16.40;99.90;;;;;;4999487;28;20289;-73
2023/07/03 05:37:15;;;;;;;11.20;2.90;;;16.40;99.90;;;;;;5011039;28;20081;-75
2023/07/03 05:39:41;;;;;;;9.75;3.25;;;16.40;99.90;;;;;;5011958;28;20046;-75
2023/07/03 05:42:07;;;;;;;15.70;3.42;;;16.60;99.90;;;;;;5013085;28;20052;-73
2023/07/03 05:44:33;;;;;;;14.10;3.42;;;16.70;99.90;;;;;;5010442;28;20084;-73
2023/07/03 05:46:59;;;;;;;9.70;3.17;;;16.70;99.90;;;;;;5009372;28;20469;-73
2023/07/03 05:49:24;;;;;;;10.32;3.17;;;16.70;99.90;;;;;;5007393;28;20064;-72
2023/07/03 05:51:50;;;;;;;10.90;3.60;;;16.70;99.90;;;;;;4995876;28;20045;-74
2023/07/03 05:54:16;;;;;;;12.75;3.45;;;16.70;99.90;;;;;;5003890;28;20053;-74
2023/07/03 05:56:43;;;;;;;9.35;2.33;;;16.70;99.90;;;;;;5008447;28;20046;-74
2023/07/03 05:59:09;;;;;;;9.77;3.15;;;16.80;99.90;;;;;;5007993;28;20037;-73
2023/07/03 06:01:34;;;;;;;6.10;2.88;;;16.80;99.90;;;;;;5004937;28;20545;-72
2023/07/03 06:04:00;;;;;;;6.32;2.50;;;16.80;99.90;;;;;;5008053;28;20137;-71
2023/07/03 06:06:26;;;;;;;8.80;2.28;;;16.70;99.90;;;;;;4996747;28;20061;-72
2023/07/03 06:08:51;;;;;;;7.30;2.60;;;16.60;99.90;;;;;;5007778;28;20458;-72
2023/07/03 06:11:17;;;;;;;8.38;2.60;;;16.80;99.90;;;;;;5009142;28;20052;-72
2023/07/03 06:13:42;;;;;;;7.90;2.50;;;16.90;99.90;;;;;;5016070;28;20132;-73
2023/07/03 06:16:08;;;;;;;7.25;2.33;;;16.90;99.90;;;;;;5007711;28;20133;-73
2023/07/03 06:18:34;;;;;;;5.82;2.10;;;16.80;99.90;;;;;;5011850;28;20046;-72
2023/07/03 06:20:59;;;;;;;6.38;2.53;;;16.80;99.90;;;;;;5009693;28;20374;-72
2023/07/03 06:23:25;;;;;;;7.03;2.85;;;16.80;99.90;;;;;;5000424;28;20137;-73
2023/07/03 06:25:51;;;;;;;7.88;2.83;;;16.80;99.90;;;;;;5004582;28;20049;-72
2023/07/03 06:28:16;;;;;;;9.43;2.92;;;16.90;99.90;;;;;;5011229;28;20056;-72
2023/07/03 06:30:49;;;;;;;10.52;3.13;;;16.80;99.90;;;;;;5009971;28;20401;-72
2023/07/03 06:33:15;;;;;;;6.95;2.75;;;16.80;99.90;;;;;;4999121;28;20041;-72
2023/07/03 06:35:41;;;;;;;6.97;3.00;;;16.70;99.90;;;;;;5009003;28;20099;-73
2023/07/03 06:38:07;;;;;;;9.60;2.35;;;16.70;99.90;;;;;;5003838;28;20418;-72
2023/07/03 06:40:32;;;;;;;9.60;2.63;;;16.60;99.90;;;;;;5009659;28;20121;-72
2023/07/03 06:42:58;;;;;;;3.53;1.83;;;16.60;99.90;;;;;;4995904;28;20130;-72
2023/07/03 06:45:24;;;;;;;6.65;2.10;;;16.70;99.90;;;;;;5007675;28;20053;-72
2023/07/03 06:47:50;;;;;;;7.38;2.45;;;16.80;99.90;;;;;;5007372;28;20046;-74
2023/07/03 06:50:15;;;;;;;6.97;2.53;;;16.70;99.90;;;;;;4993877;28;20045;-74
2023/07/03 06:52:42;;;;;;;8.93;2.55;;;16.60;99.90;;;;;;5003223;28;20409;-73
2023/07/03 06:55:08;;;;;;;8.38;2.60;;;16.70;99.90;;;;;;5002627;28;20031;-72
2023/07/03 06:57:34;;;;;;;8.25;2.20;;;16.70;99.90;;;;;;4999305;28;20053;-72
2023/07/03 07:00:00;;;;;;;8.02;2.40;;;16.80;99.90;;;;;;5005862;28;20033;-72
2023/07/03 07:02:26;;;;;;;5.15;2.28;;;16.80;99.90;;;;;;5008881;28;20053;-73
2023/07/03 07:04:55;;;;;;;7.40;2.20;;;16.90;99.90;;;;;;5010421;28;20038;-71
2023/07/03 07:07:21;;;;;;;9.15;2.53;;;16.90;99.90;;;;;;5012566;28;20052;-72
2023/07/03 07:09:46;;;;;;;7.00;2.22;;;17.00;99.90;;;;;;5013913;28;20053;-72
2023/07/03 07:12:12;;;;;;;6.07;2.38;;;16.90;99.90;;;;;;5006882;28;20092;-71
2023/07/03 07:14:38;;;;;;;7.38;2.58;;;17.00;99.90;;;;;;5010843;28;20052;-72
2023/07/03 07:17:04;;;;;;;6.20;2.50;;;17.00;99.90;;;;;;5008718;28;20042;-72
2023/07/03 07:19:29;;;;;;;5.55;2.50;;;16.90;99.90;;;;;;5013844;28;20085;-72
2023/07/03 07:21:55;;;;;;;8.90;2.50;;;17.00;99.90;;;;;;5013840;28;20053;-73
2023/07/03 07:24:24;;;;;;;9.73;3.25;;;17.00;99.90;;;;;;5011726;28;20050;-73
2023/07/03 07:26:54;;;;;;;8.35;2.38;;;16.90;99.90;;;;;;5010897;28;20049;-73
2023/07/03 07:29:25;;;;;;;8.40;2.83;;;16.80;99.90;;;;;;5008946;28;20042;-73
2023/07/03 07:31:54;;;;;;;8.57;2.88;;;16.90;99.90;;;;;;5003776;28;20452;-73
2023/07/03 07:34:20;;;;;;;7.63;2.63;;;17.00;99.90;;;;;;5014632;28;20038;-73
2023/07/03 07:36:45;;;;;;;4.60;2.20;;;17.00;99.90;;;;;;5014252;28;20099;-72
2023/07/03 07:39:11;;;;;;;8.75;2.42;;;17.10;99.90;;;;;;5003634;28;20042;-72
2023/07/03 07:41:37;;;;;;;10.07;2.95;;;17.10;99.90;;;;;;5000445;28;20081;-73
2023/07/03 07:44:03;;;;;;;6.50;2.30;;;17.20;99.90;;;;;;4997542;28;20054;-73
2023/07/03 07:46:31;;;;;;;5.40;2.53;;;17.30;99.90;;;;;;5011318;28;20042;-73
2023/07/03 07:48:58;;;;;;;5.47;2.30;;;17.30;99.90;;;;;;5001187;28;20050;-73
2023/07/03 07:51:25;;;;;;;7.32;2.28;;;17.30;99.90;;;;;;5011479;28;20172;-72
2023/07/03 07:53:52;;;;;;;4.40;1.95;;;17.50;99.90;;;;;;5007267;28;20077;-73
2023/07/03 07:56:19;;;;;;;4.97;2.00;;;17.50;99.90;;;;;;5009956;28;20121;-72
2023/07/03 07:58:44;;;;;;;4.97;2.33;;;17.50;99.90;;;;;;4996765;28;20046;-72
2023/07/03 08:01:14;;;;;;;7.03;2.33;;;17.50;99.90;;;;;;5007185;28;20382;-72
2023/07/03 08:03:41;;;;;;;8.73;2.25;;;17.40;99.90;;;;;;5009455;28;20052;-73
2023/07/03 08:06:07;;;;;;;6.15;2.17;;;17.40;99.90;;;;;;5004152;28;20402;-72
2023/07/03 08:08:33;;;;;;;8.50;2.42;;;17.60;99.90;;;;;;4998369;28;20041;-73
2023/07/03 08:11:01;;;;;;;5.80;2.92;;;17.40;99.90;;;;;;5008301;28;20049;-73
2023/07/03 08:13:29;;;;;;;9.07;2.20;;;17.50;99.90;;;;;;5001645;28;20483;-72
2023/07/03 08:15:55;;;;;;;7.93;2.42;;;17.50;99.90;;;;;;5003990;28;20050;-73
2023/07/03 08:18:21;;;;;;;8.07;2.80;;;17.40;99.90;;;;;;5006025;28;20478;-72
2023/07/03 08:20:48;;;;;;;6.18;2.88;;;17.40;99.90;;;;;;5006608;28;20132;-73
2023/07/03 08:23:14;;;;;;;10.02;2.85;;;17.50;99.90;;;;;;5000282;28;20236;-73
2023/07/03 08:25:41;;;;;;;4.65;2.58;;;17.60;99.90;;;;;;5005503;28;20041;-74
2023/07/03 08:28:07;;;;;;;9.63;2.50;;;17.70;99.90;;;;;;5010639;28;20099;-74
2023/07/03 08:30:33;;;;;;;8.50;2.80;;;17.70;99.90;;;;;;5008396;28;20050;-72
2023/07/03 08:32:59;;;;;;;5.63;2.20;;;17.80;99.90;;;;;;5009617;28;20046;-73
2023/07/03 08:35:24;;;;;;;7.70;2.97;;;17.90;99.90;;;;;;5004532;28;20042;-73
2023/07/03 08:37:52;;;;;;;6.65;2.63;;;17.80;99.90;;;;;;4997250;28;20124;-73
2023/07/03 08:40:20;;;;;;;8.77;2.35;;;17.80;99.90;;;;;;4996985;28;20057;-73
2023/07/03 08:42:55;;;;;;;4.38;2.00;;;17.90;99.90;;;;;;5007608;28;22447;-72
2023/07/03 08:45:40;;;;;;;5.90;2.20;;;17.90;99.90;;;;;;5003580;28;20095;-73
2023/07/03 08:48:16;;;;;;;6.28;2.17;;;18.00;99.90;;;;;;4999490;28;20092;-73
2023/07/03 08:50:47;;;;;;;4.90;2.28;;;18.00;99.90;;;;;;5001414;28;20054;-73
2023/07/03 08:53:17;;;;;;;8.05;2.53;;;18.00;99.90;;;;;;5008803;28;20488;-72
2023/07/03 08:56:16;;;;;;;5.97;2.63;;;18.00;99.90;;;;;;5003839;28;20050;-73
2023/07/03 08:58:43;;;;;;;4.05;1.95;;;17.90;99.90;;;;;;5006384;28;20139;-73
2023/07/03 09:01:27;;;;;;;4.57;2.10;;;18.00;99.90;;;;;;4996663;28;20037;-73
2023/07/03 09:04:23;;;;;;;6.25;2.25;;;18.10;99.90;;;;;;5000591;28;20121;-73
2023/07/03 09:06:58;;;;;;;6.45;2.63;;;18.10;99.90;;;;;;5004265;28;20088;-73
2023/07/03 09:09:40;;;;;;;7.43;2.30;;;18.20;99.90;;;;;;5000815;28;20397;-73
2023/07/03 09:12:19;;;;;;;8.13;2.40;;;18.30;99.90;;;;;;5005555;28;20057;-74
2023/07/03 09:15:20;;;;;;;8.35;2.15;;;18.30;99.90;;;;;;5009605;28;20493;-73
2023/07/03 09:17:48;;;;;;;7.05;2.03;;;18.30;99.90;;;;;;5004115;28;20052;-73
2023/07/03 09:20:15;;;;;;;7.28;2.50;;;18.50;99.90;;;;;;5006653;28;20053;-73
2023/07/03 09:22:50;;;;;;;6.10;2.45;;;18.50;99.90;;;;;;5011478;28;20057;-74
2023/07/03 09:25:40;;;;;;;6.47;1.73;;;18.50;99.90;;;;;;5010521;28;20053;-72
2023/07/03 09:28:09;;;;;;;6.20;2.00;;;18.50;99.90;;;;;;4999269;28;20053;-73
2023/07/03 09:30:35;;;;;;;4.25;2.00;;;18.50;99.90;;;;;;5011190;28;20057;-74
2023/07/03 09:33:01;;;;;;;9.00;2.53;;;18.40;99.90;;;;;;5008888;28;20157;-73
2023/07/03 09:35:39;;;;;;;7.97;2.05;;;18.40;99.90;;;;;;5008979;28;20050;-73
2023/07/03 09:38:15;;;;;;;7.75;2.22;;;18.30;99.90;;;;;;5006299;28;20248;-73
2023/07/03 09:40:44;;;;;;;8.60;2.63;;;18.30;99.90;;;;;;5005662;28;20117;-74
2023/07/03 09:43:17;;;;;;;6.15;2.22;;;18.50;99.90;;;;;;5019125;28;20033;-73
2023/07/03 09:45:42;;;;;;;7.43;2.42;;;18.50;99.90;;;;;;5019003;28;20041;-73
2023/07/03 09:48:18;;;;;;;6.78;2.60;;;18.50;99.90;;;;;;5009958;28;20046;-72
2023/07/03 09:50:44;;;;;;;9.60;2.70;;;18.40;99.90;;;;;;5008378;28;20041;-73
2023/07/03 09:53:16;;;;;;;4.30;2.00;;;18.50;99.90;;;;;;5009977;28;20508;-72
2023/07/03 09:55:43;;;;;;;5.20;2.20;;;18.50;99.90;;;;;;5008043;28;20073;-72
2023/07/03 09:58:18;;;;;;;6.95;2.92;;;18.60;99.90;;;;;;5010438;28;20045;-73
2023/07/03 10:00:49;;;;;;;6.15;2.50;;;18.50;99.90;;;;;;5010407;28;20037;-72
2023/07/03 10:03:29;;;;;;;7.10;2.38;;;18.50;99.90;;;;;;5014395;28;20041;-73
2023/07/03 10:05:56;;;;;;;7.47;2.40;;;18.50;99.90;;;;;;5015197;28;20045;-73
2023/07/03 10:08:27;;;;;;;4.88;2.22;;;18.60;99.90;;;;;;5010572;28;20037;-72
2023/07/03 10:10:56;;;;;;;9.95;2.28;;;18.50;99.90;;;;;;5013976;28;20167;-73
2023/07/03 10:13:30;;;;;;;6.40;2.33;;;18.50;99.90;;;;;;5008273;28;20143;-73
2023/07/03 10:15:56;;;;;;;11.32;2.50;;;18.40;99.90;;;;;;5024522;28;20159;-73
2023/07/03 10:18:31;;;;;;;4.20;2.22;;;18.40;99.90;;;;;;5007801;28;20072;-73
2023/07/03 10:21:01;;;;;;;7.45;2.20;;;18.40;99.90;;;;;;5012437;28;20038;-73
2023/07/03 10:23:31;;;;;;;4.35;2.20;;;18.70;99.90;;;;;;4998048;28;20493;-72
2023/07/03 10:26:28;;;;;;;8.73;2.53;;;18.80;99.90;;;;;;5007341;28;20399;-72
2023/07/03 10:29:25;;;;;;;9.32;2.75;;;19.00;99.90;;;;;;5006928;28;20045;-73
2023/07/03 10:31:58;;;;;;;6.35;2.38;;;19.10;99.90;;;;;;5005996;28;20160;-72
2023/07/03 10:34:37;;;;;;;6.53;2.40;;;19.00;99.90;;;;;;5005713;28;20393;-72
2023/07/03 10:37:05;;;;;;;6.85;2.38;;;19.10;99.90;;;;;;4994082;28;20363;-73
2023/07/03 10:40:10;;;;;;;5.90;2.30;;;19.10;99.90;;;;;;5003361;28;20053;-73
2023/07/03 10:42:48;;;;;;;8.85;2.33;;;19.00;99.90;;;;;;5001131;28;20061;-73
2023/07/03 10:45:15;;;;;;;6.85;2.80;;;19.00;99.90;;;;;;4997081;28;20482;-73
2023/07/03 10:47:49;;;;;;;4.32;2.20;;;19.10;99.90;;;;;;5011925;28;20042;-74
2023/07/03 10:50:17;;;;;;;6.57;2.83;;;19.20;99.90;;;;;;5019555;28;20176;-73
2023/07/03 10:53:12;;;;;;;5.47;2.03;;;19.30;99.90;;;;;;5021578;28;20048;-71
2023/07/03 10:55:45;;;;;;;7.03;2.25;;;19.50;99.90;;;;;;4994694;28;20054;-72
2023/07/03 10:58:29;;;;;;;;;;;19.50;99.90;;;;;;5007103;28;20050;-73
2023/07/03 11:00:58;;;;;;;11.80;2.20;;;19.60;99.90;;;;;;5007443;28;20008;-73
2023/07/03 11:03:42;;;;;;;5.00;2.05;;;19.80;99.90;;;;;;5004487;28;20056;-74
2023/07/03 11:06:21;;;;;;;5.20;2.25;;;19.90;99.90;;;;;;4999310;28;20046;-73
2023/07/03 11:08:59;;;;;;;6.72;2.35;;;19.90;99.90;;;;;;5000237;28;20042;-73
2023/07/03 11:11:52;;;;;;;10.07;2.72;;;19.90;99.90;;;;;;5009376;28;20140;-73
2023/07/03 11:14:30;;;;;;;3.80;1.83;;;20.00;99.90;;;;;;5010507;28;20065;-72
2023/07/03 11:17:08;;;;;;;4.03;1.80;;;20.20;99.90;;;;;;4998614;28;20395;-72
2023/07/03 11:19:46;;;;;;;4.15;2.00;;;;;;;;;;5011046;28;20045;-73
2023/07/03 11:22:24;;;;;;;6.32;1.85;;;20.10;99.90;;;;;;5019743;28;20053;-74
2023/07/03 11:25:09;;;;;;;5.35;2.20;;;20.00;99.90;;;;;;5002062;28;20062;-72
2023/07/03 11:27:57;;;;;;;11.00;2.28;;;19.90;99.90;;;;;;5013815;28;20089;-72
2023/07/03 11:30:25;;;;;;;8.73;2.20;;;19.60;99.90;;;;;;5009392;28;20473;-72
2023/07/03 11:32:52;;;;;;;7.35;2.70;;;19.60;99.90;;;;;;5010635;28;20080;-73
2023/07/03 11:35:18;;;;;;;6.70;2.13;;;19.50;99.90;;;;;;5006706;28;20042;-72
2023/07/03 11:37:48;;;;;;;6.35;2.22;;;19.60;99.90;;;;;;5010704;28;20373;-72
2023/07/03 11:40:39;;;;;;;4.18;1.70;;;19.50;99.90;;;;;;5001796;28;20052;-72
2023/07/03 11:43:29;;;;;;;6.18;1.98;;;19.50;99.90;;;;;;4995767;28;20414;-72
2023/07/03 11:45:58;;;;;;;6.68;2.60;;;19.40;99.90;;;;;;5005824;28;20096;-72
2023/07/03 11:48:43;;;;;;;5.18;2.22;;;19.30;99.90;;;;;;5006959;28;20050;-72
2023/07/03 11:51:14;;;;;;;6.13;2.00;;;19.30;99.90;;;;;;5008267;28;20046;-71
2023/07/03 11:53:44;;;;;;;10.38;2.53;;;19.20;99.90;;;;;;5008235;28;20030;-72
2023/07/03 11:56:36;;;;;;;7.35;2.30;;;19.20;99.90;;;;;;5001095;28;20045;-72
2023/07/03 11:59:12;;;;;;;6.40;2.00;;;19.40;99.90;;;;;;5013335;28;20107;-72
2023/07/03 12:01:38;;;;;;;7.50;2.08;;;19.60;99.90;;;;;;4998868;28;20405;-72
2023/07/03 12:04:07;;;;;;;7.55;1.90;;;19.50;99.90;;;;;;5006608;28;20141;-72
2023/07/03 12:06:39;;;;;;;6.03;2.30;;;19.60;99.90;;;;;;5009340;28;20049;-72
2023/07/03 12:09:33;;;;;;;7.35;2.67;;;19.70;99.90;;;;;;5010831;28;20124;-72
2023/07/03 12:12:06;;;;;;;7.60;2.65;;;19.80;99.90;;;;;;5008744;28;20608;-73
2023/07/03 12:14:46;;;;;;;7.20;2.22;;;19.90;99.90;;;;;;5008705;28;20440;-73
2023/07/03 12:17:36;;;;;;;10.13;2.50;;;20.00;99.90;;;;;;5005204;28;20041;-73
2023/07/03 12:20:07;;;;;;;6.38;2.20;;;20.00;99.90;;;;;;4999076;28;20069;-73
2023/07/03 12:22:38;;;;;;;5.40;2.40;;;20.20;99.90;;;;;;5002351;28;20054;-73
2023/07/03 12:25:06;;;;;;;5.32;2.15;;;20.40;99.90;;;;;;5003650;28;20053;-72
2023/07/03 12:27:32;;;;;;;7.20;1.90;;;20.50;99.90;;;;;;5002935;28;20042;-71
2023/07/03 12:29:58;;;;;;;7.45;2.17;;;20.60;99.90;;;;;;5008453;28;20049;-72
2023/07/03 12:32:27;;;;;;;6.38;2.75;;;20.70;99.90;;;;;;5008067;28;20037;-71
2023/07/03 12:34:53;;;;;;;5.25;2.10;;;20.70;99.90;;;;;;5000096;28;20049;-72
2023/07/03 12:37:24;;;;;;;9.52;2.47;;;20.90;99.90;;;;;;5020601;28;20038;-72
2023/07/03 12:39:50;;;;;;;6.07;2.00;;;20.90;99.90;;;;;;5008440;28;20050;-72
2023/07/03 12:42:24;;;;;;;7.97;2.13;;;20.70;99.90;;;;;;5005146;28;20592;-72
2023/07/03 12:44:51;;;;;;;5.97;2.05;;;20.80;99.90;;;;;;4999279;28;20137;-73
2023/07/03 12:47:19;;;;;;;7.75;2.03;;;20.80;99.90;;;;;;5003766;28;20091;-73
2023/07/03 12:49:55;;;;;;;5.10;2.13;;;21.00;99.90;;;;;;5005468;28;20053;-72
2023/07/03 12:52:25;;;;;;;5.30;2.22;;;20.90;99.90;;;;;;5006002;28;20113;-72
2023/07/03 12:54:52;;;;;;;7.15;2.40;;;20.90;99.90;;;;;;5012038;28;20548;-69
2023/07/03 12:57:20;;;;;;;5.75;2.05;;;20.90;99.90;;;;;;5006508;28;20038;-70